sensor_id;sensor_type;location;lat;lon;timestamp;P1;durP1;ratioP1;P2;durP2;ratioP2
73980;SDS011;62348;51.412;5.436;2022-11-22T00:01:44;7.68;;;4.10;;
73980;SDS011;62348;51.412;5.436;2022-11-22T00:04:10;8.07;;;4.72;;
73980;SDS011;62348;51.412;5.436;2022-11-22T00:06:36;9.93;;;4.45;;
73980;SDS011;62348;51.412;5.436;2022-11-22T00:09:01;8.00;;;4.40;;
73980;SDS011;62348;51.412;5.436;2022-11-22T00:11:26;10.35;;;4.70;;
73980;SDS011;62348;51.412;5.436;2022-11-22T00:13:52;7.38;;;4.63;;
73980;SDS011;62348;51.412;5.436;2022-11-22T00:16:17;10.90;;;4.80;;
73980;SDS011;62348;51.412;5.436;2022-11-22T00:18:42;10.75;;;4.75;;
73980;SDS011;62348;51.412;5.436;2022-11-22T00:21:08;9.73;;;4.03;;
73980;SDS011;62348;51.412;5.436;2022-11-22T00:23:33;7.00;;;3.80;;
73980;SDS011;62348;51.412;5.436;2022-11-22T00:25:59;11.95;;;3.92;;
73980;SDS011;62348;51.412;5.436;2022-11-22T00:28:24;11.68;;;3.85;;
73980;SDS011;62348;51.412;5.436;2022-11-22T00:30:50;9.57;;;4.00;;
73980;SDS011;62348;51.412;5.436;2022-11-22T00:33:15;6.78;;;3.65;;
73980;SDS011;62348;51.412;5.436;2022-11-22T00:35:41;9.50;;;4.03;;
73980;SDS011;62348;51.412;5.436;2022-11-22T00:38:06;11.90;;;3.78;;
73980;SDS011;62348;51.412;5.436;2022-11-22T00:40:31;9.38;;;4.07;;
73980;SDS011;62348;51.412;5.436;2022-11-22T00:42:57;6.50;;;3.83;;
73980;SDS011;62348;51.412;5.436;2022-11-22T00:45:22;7.40;;;3.47;;
73980;SDS011;62348;51.412;5.436;2022-11-22T00:47:47;6.15;;;3.55;;
73980;SDS011;62348;51.412;5.436;2022-11-22T00:50:13;6.90;;;3.97;;
73980;SDS011;62348;51.412;5.436;2022-11-22T00:52:38;10.00;;;3.65;;
73980;SDS011;62348;51.412;5.436;2022-11-22T00:55:04;8.02;;;3.60;;
73980;SDS011;62348;51.412;5.436;2022-11-22T00:57:30;6.45;;;3.42;;
73980;SDS011;62348;51.412;5.436;2022-11-22T00:59:55;14.68;;;3.47;;
73980;SDS011;62348;51.412;5.436;2022-11-22T01:02:20;7.15;;;3.13;;
73980;SDS011;62348;51.412;5.436;2022-11-22T01:04:46;10.35;;;4.18;;
73980;SDS011;62348;51.412;5.436;2022-11-22T01:07:11;12.88;;;3.50;;
73980;SDS011;62348;51.412;5.436;2022-11-22T01:09:37;11.57;;;3.50;;
73980;SDS011;62348;51.412;5.436;2022-11-22T01:12:02;10.68;;;3.63;;
73980;SDS011;62348;51.412;5.436;2022-11-22T01:14:28;10.90;;;3.83;;
73980;SDS011;62348;51.412;5.436;2022-11-22T01:16:53;7.70;;;3.30;;
73980;SDS011;62348;51.412;5.436;2022-11-22T01:19:19;14.20;;;4.32;;
73980;SDS011;62348;51.412;5.436;2022-11-22T01:21:44;13.23;;;3.88;;
73980;SDS011;62348;51.412;5.436;2022-11-22T01:24:09;6.00;;;3.30;;
73980;SDS011;62348;51.412;5.436;2022-11-22T01:26:35;8.43;;;3.40;;
73980;SDS011;62348;51.412;5.436;2022-11-22T01:29:00;12.23;;;3.97;;
73980;SDS011;62348;51.412;5.436;2022-11-22T01:31:26;11.68;;;4.53;;
73980;SDS011;62348;51.412;5.436;2022-11-22T01:33:52;9.60;;;3.58;;
73980;SDS011;62348;51.412;5.436;2022-11-22T01:36:17;15.55;;;4.05;;
73980;SDS011;62348;51.412;5.436;2022-11-22T01:38:42;11.05;;;3.22;;
73980;SDS011;62348;51.412;5.436;2022-11-22T01:41:08;13.23;;;4.55;;
73980;SDS011;62348;51.412;5.436;2022-11-22T01:43:33;14.65;;;4.18;;
73980;SDS011;62348;51.412;5.436;2022-11-22T01:46:02;16.55;;;4.22;;
73980;SDS011;62348;51.412;5.436;2022-11-22T01:48:46;11.80;;;4.80;;
73980;SDS011;62348;51.412;5.436;2022-11-22T01:51:22;17.92;;;4.20;;
73980;SDS011;62348;51.412;5.436;2022-11-22T01:53:52;14.73;;;4.28;;
73980;SDS011;62348;51.412;5.436;2022-11-22T01:56:20;19.98;;;4.53;;
73980;SDS011;62348;51.412;5.436;2022-11-22T01:58:47;17.25;;;4.40;;
73980;SDS011;62348;51.412;5.436;2022-11-22T02:03:45;11.70;;;3.75;;
73980;SDS011;62348;51.412;5.436;2022-11-22T02:06:13;20.58;;;3.97;;
73980;SDS011;62348;51.412;5.436;2022-11-22T02:08:48;17.52;;;3.85;;
73980;SDS011;62348;51.412;5.436;2022-11-22T02:11:19;17.25;;;3.70;;
73980;SDS011;62348;51.412;5.436;2022-11-22T02:13:45;17.15;;;3.63;;
73980;SDS011;62348;51.412;5.436;2022-11-22T02:16:11;19.70;;;3.50;;
73980;SDS011;62348;51.412;5.436;2022-11-22T02:18:37;11.52;;;3.10;;
73980;SDS011;62348;51.412;5.436;2022-11-22T02:21:03;14.30;;;3.63;;
73980;SDS011;62348;51.412;5.436;2022-11-22T02:26:16;13.85;;;4.03;;
73980;SDS011;62348;51.412;5.436;2022-11-22T02:28:42;15.27;;;3.72;;
73980;SDS011;62348;51.412;5.436;2022-11-22T02:31:07;13.95;;;3.33;;
73980;SDS011;62348;51.412;5.436;2022-11-22T02:33:33;15.10;;;4.38;;
73980;SDS011;62348;51.412;5.436;2022-11-22T02:35:58;12.65;;;3.28;;
73980;SDS011;62348;51.412;5.436;2022-11-22T02:38:25;14.30;;;2.95;;
73980;SDS011;62348;51.412;5.436;2022-11-22T02:41:01;15.45;;;3.22;;
73980;SDS011;62348;51.412;5.436;2022-11-22T02:43:30;14.45;;;3.22;;
73980;SDS011;62348;51.412;5.436;2022-11-22T02:46:05;14.70;;;2.88;;
73980;SDS011;62348;51.412;5.436;2022-11-22T02:48:32;16.33;;;3.30;;
73980;SDS011;62348;51.412;5.436;2022-11-22T02:50:58;18.33;;;3.92;;
73980;SDS011;62348;51.412;5.436;2022-11-22T02:53:23;13.50;;;3.33;;
73980;SDS011;62348;51.412;5.436;2022-11-22T02:55:49;16.00;;;2.95;;
73980;SDS011;62348;51.412;5.436;2022-11-22T02:58:14;16.75;;;3.50;;
73980;SDS011;62348;51.412;5.436;2022-11-22T03:00:40;15.32;;;3.03;;
73980;SDS011;62348;51.412;5.436;2022-11-22T03:03:05;17.25;;;3.47;;
73980;SDS011;62348;51.412;5.436;2022-11-22T03:05:31;14.98;;;3.33;;
73980;SDS011;62348;51.412;5.436;2022-11-22T03:07:56;11.60;;;3.03;;
73980;SDS011;62348;51.412;5.436;2022-11-22T03:10:22;10.48;;;2.78;;
73980;SDS011;62348;51.412;5.436;2022-11-22T03:12:47;16.45;;;2.97;;
73980;SDS011;62348;51.412;5.436;2022-11-22T03:15:13;18.75;;;3.25;;
73980;SDS011;62348;51.412;5.436;2022-11-22T03:17:38;19.45;;;2.90;;
73980;SDS011;62348;51.412;5.436;2022-11-22T03:20:04;11.77;;;2.70;;
73980;SDS011;62348;51.412;5.436;2022-11-22T03:22:29;18.65;;;3.47;;
73980;SDS011;62348;51.412;5.436;2022-11-22T03:24:55;13.15;;;3.83;;
73980;SDS011;62348;51.412;5.436;2022-11-22T03:27:20;18.92;;;3.25;;
73980;SDS011;62348;51.412;5.436;2022-11-22T03:29:46;16.60;;;3.17;;
73980;SDS011;62348;51.412;5.436;2022-11-22T03:32:11;11.52;;;2.47;;
73980;SDS011;62348;51.412;5.436;2022-11-22T03:34:36;15.18;;;2.58;;
73980;SDS011;62348;51.412;5.436;2022-11-22T03:37:02;11.50;;;2.60;;
73980;SDS011;62348;51.412;5.436;2022-11-22T03:39:27;15.43;;;2.92;;
73980;SDS011;62348;51.412;5.436;2022-11-22T03:41:52;12.77;;;2.88;;
73980;SDS011;62348;51.412;5.436;2022-11-22T03:44:20;11.43;;;2.50;;
73980;SDS011;62348;51.412;5.436;2022-11-22T03:46:46;8.68;;;2.55;;
73980;SDS011;62348;51.412;5.436;2022-11-22T03:49:11;11.13;;;2.15;;
73980;SDS011;62348;51.412;5.436;2022-11-22T03:51:37;9.90;;;2.42;;
73980;SDS011;62348;51.412;5.436;2022-11-22T03:54:02;15.43;;;3.13;;
73980;SDS011;62348;51.412;5.436;2022-11-22T03:56:28;17.88;;;2.60;;
73980;SDS011;62348;51.412;5.436;2022-11-22T03:58:53;10.10;;;2.25;;
73980;SDS011;62348;51.412;5.436;2022-11-22T04:01:18;11.75;;;2.72;;
73980;SDS011;62348;51.412;5.436;2022-11-22T04:03:44;14.63;;;3.05;;
73980;SDS011;62348;51.412;5.436;2022-11-22T04:06:09;11.57;;;2.47;;
73980;SDS011;62348;51.412;5.436;2022-11-22T04:08:34;15.05;;;2.70;;
73980;SDS011;62348;51.412;5.436;2022-11-22T04:11:00;18.40;;;3.17;;
73980;SDS011;62348;51.412;5.436;2022-11-22T04:13:25;14.80;;;2.85;;
73980;SDS011;62348;51.412;5.436;2022-11-22T04:16:11;16.58;;;3.17;;
73980;SDS011;62348;51.412;5.436;2022-11-22T04:18:36;9.75;;;2.80;;
73980;SDS011;62348;51.412;5.436;2022-11-22T04:21:01;11.15;;;2.70;;
73980;SDS011;62348;51.412;5.436;2022-11-22T04:23:45;13.70;;;2.90;;
73980;SDS011;62348;51.412;5.436;2022-11-22T04:26:30;13.65;;;2.70;;
73980;SDS011;62348;51.412;5.436;2022-11-22T04:28:56;16.08;;;3.15;;
73980;SDS011;62348;51.412;5.436;2022-11-22T04:31:21;13.65;;;2.83;;
73980;SDS011;62348;51.412;5.436;2022-11-22T04:34:05;15.57;;;4.63;;
73980;SDS011;62348;51.412;5.436;2022-11-22T04:36:30;12.98;;;2.70;;
73980;SDS011;62348;51.412;5.436;2022-11-22T04:38:56;8.70;;;2.22;;
73980;SDS011;62348;51.412;5.436;2022-11-22T04:41:21;14.70;;;2.65;;
73980;SDS011;62348;51.412;5.436;2022-11-22T04:43:47;12.20;;;2.78;;
73980;SDS011;62348;51.412;5.436;2022-11-22T04:46:31;10.60;;;3.22;;
73980;SDS011;62348;51.412;5.436;2022-11-22T04:48:56;14.43;;;2.78;;
73980;SDS011;62348;51.412;5.436;2022-11-22T04:51:22;11.63;;;2.88;;
73980;SDS011;62348;51.412;5.436;2022-11-22T04:54:06;12.15;;;2.88;;
73980;SDS011;62348;51.412;5.436;2022-11-22T04:56:31;8.85;;;1.85;;
73980;SDS011;62348;51.412;5.436;2022-11-22T04:58:56;12.45;;;2.33;;
73980;SDS011;62348;51.412;5.436;2022-11-22T05:01:22;14.65;;;2.15;;
73980;SDS011;62348;51.412;5.436;2022-11-22T05:03:47;11.88;;;2.90;;
73980;SDS011;62348;51.412;5.436;2022-11-22T05:06:13;14.65;;;2.40;;
73980;SDS011;62348;51.412;5.436;2022-11-22T05:08:38;18.45;;;2.38;;
73980;SDS011;62348;51.412;5.436;2022-11-22T05:11:04;12.02;;;2.25;;
73980;SDS011;62348;51.412;5.436;2022-11-22T05:13:33;11.43;;;2.78;;
73980;SDS011;62348;51.412;5.436;2022-11-22T05:16:01;12.93;;;2.80;;
73980;SDS011;62348;51.412;5.436;2022-11-22T05:18:27;13.88;;;2.38;;
73980;SDS011;62348;51.412;5.436;2022-11-22T05:20:53;10.25;;;2.58;;
73980;SDS011;62348;51.412;5.436;2022-11-22T05:23:19;11.40;;;2.30;;
73980;SDS011;62348;51.412;5.436;2022-11-22T05:26:04;13.68;;;2.10;;
73980;SDS011;62348;51.412;5.436;2022-11-22T05:28:31;11.25;;;2.40;;
73980;SDS011;62348;51.412;5.436;2022-11-22T05:30:58;15.65;;;2.42;;
73980;SDS011;62348;51.412;5.436;2022-11-22T05:33:23;9.25;;;2.20;;
73980;SDS011;62348;51.412;5.436;2022-11-22T05:35:49;8.77;;;2.13;;
73980;SDS011;62348;51.412;5.436;2022-11-22T05:38:14;12.30;;;2.42;;
73980;SDS011;62348;51.412;5.436;2022-11-22T05:40:40;15.02;;;2.50;;
73980;SDS011;62348;51.412;5.436;2022-11-22T05:43:05;10.48;;;2.17;;
73980;SDS011;62348;51.412;5.436;2022-11-22T05:45:32;13.02;;;2.35;;
73980;SDS011;62348;51.412;5.436;2022-11-22T05:47:57;11.38;;;2.28;;
73980;SDS011;62348;51.412;5.436;2022-11-22T05:50:23;8.43;;;2.28;;
73980;SDS011;62348;51.412;5.436;2022-11-22T05:52:48;10.05;;;2.40;;
73980;SDS011;62348;51.412;5.436;2022-11-22T05:55:13;9.70;;;2.50;;
73980;SDS011;62348;51.412;5.436;2022-11-22T05:57:39;8.43;;;2.20;;
73980;SDS011;62348;51.412;5.436;2022-11-22T06:00:04;13.07;;;2.72;;
73980;SDS011;62348;51.412;5.436;2022-11-22T06:02:30;7.70;;;1.95;;
73980;SDS011;62348;51.412;5.436;2022-11-22T06:04:56;7.45;;;2.50;;
73980;SDS011;62348;51.412;5.436;2022-11-22T06:07:21;8.48;;;2.03;;
73980;SDS011;62348;51.412;5.436;2022-11-22T06:09:47;12.45;;;2.35;;
73980;SDS011;62348;51.412;5.436;2022-11-22T06:12:12;9.85;;;3.17;;
73980;SDS011;62348;51.412;5.436;2022-11-22T06:14:38;11.48;;;3.17;;
73980;SDS011;62348;51.412;5.436;2022-11-22T06:17:03;7.30;;;2.25;;
73980;SDS011;62348;51.412;5.436;2022-11-22T06:19:28;6.15;;;2.50;;
73980;SDS011;62348;51.412;5.436;2022-11-22T06:21:54;8.32;;;2.30;;
73980;SDS011;62348;51.412;5.436;2022-11-22T06:24:19;10.52;;;3.03;;
73980;SDS011;62348;51.412;5.436;2022-11-22T06:26:44;9.27;;;2.58;;
73980;SDS011;62348;51.412;5.436;2022-11-22T06:29:10;14.65;;;2.95;;
73980;SDS011;62348;51.412;5.436;2022-11-22T06:31:35;9.07;;;3.08;;
73980;SDS011;62348;51.412;5.436;2022-11-22T06:34:01;14.75;;;2.80;;
73980;SDS011;62348;51.412;5.436;2022-11-22T06:36:27;12.23;;;2.72;;
73980;SDS011;62348;51.412;5.436;2022-11-22T06:38:57;9.00;;;2.38;;
73980;SDS011;62348;51.412;5.436;2022-11-22T06:41:24;11.48;;;3.17;;
73980;SDS011;62348;51.412;5.436;2022-11-22T06:43:52;11.15;;;2.58;;
73980;SDS011;62348;51.412;5.436;2022-11-22T06:46:22;9.65;;;2.60;;
73980;SDS011;62348;51.412;5.436;2022-11-22T06:48:48;9.57;;;2.72;;
73980;SDS011;62348;51.412;5.436;2022-11-22T06:51:15;9.60;;;2.67;;
73980;SDS011;62348;51.412;5.436;2022-11-22T06:53:42;10.27;;;2.67;;
73980;SDS011;62348;51.412;5.436;2022-11-22T06:56:13;6.97;;;1.77;;
73980;SDS011;62348;51.412;5.436;2022-11-22T06:58:40;7.55;;;2.40;;
73980;SDS011;62348;51.412;5.436;2022-11-22T07:01:10;10.10;;;2.85;;
73980;SDS011;62348;51.412;5.436;2022-11-22T07:03:38;9.82;;;4.22;;
73980;SDS011;62348;51.412;5.436;2022-11-22T07:06:05;12.75;;;2.63;;
73980;SDS011;62348;51.412;5.436;2022-11-22T07:08:31;13.98;;;2.85;;
73980;SDS011;62348;51.412;5.436;2022-11-22T07:11:04;12.10;;;2.47;;
73980;SDS011;62348;51.412;5.436;2022-11-22T07:13:30;12.23;;;2.40;;
73980;SDS011;62348;51.412;5.436;2022-11-22T07:15:57;8.77;;;2.47;;
73980;SDS011;62348;51.412;5.436;2022-11-22T07:18:23;8.82;;;3.40;;
73980;SDS011;62348;51.412;5.436;2022-11-22T07:20:49;12.07;;;2.17;;
73980;SDS011;62348;51.412;5.436;2022-11-22T07:23:15;9.27;;;2.40;;
73980;SDS011;62348;51.412;5.436;2022-11-22T07:25:47;9.20;;;2.22;;
73980;SDS011;62348;51.412;5.436;2022-11-22T07:28:13;8.20;;;2.55;;
73980;SDS011;62348;51.412;5.436;2022-11-22T07:30:40;14.38;;;2.85;;
73980;SDS011;62348;51.412;5.436;2022-11-22T07:33:06;9.57;;;2.40;;
73980;SDS011;62348;51.412;5.436;2022-11-22T07:35:31;8.00;;;2.25;;
73980;SDS011;62348;51.412;5.436;2022-11-22T07:37:57;11.18;;;3.10;;
73980;SDS011;62348;51.412;5.436;2022-11-22T07:40:22;10.32;;;3.05;;
73980;SDS011;62348;51.412;5.436;2022-11-22T07:42:48;7.93;;;2.28;;
73980;SDS011;62348;51.412;5.436;2022-11-22T07:45:13;6.53;;;1.88;;
73980;SDS011;62348;51.412;5.436;2022-11-22T07:47:38;7.47;;;2.08;;
73980;SDS011;62348;51.412;5.436;2022-11-22T07:50:04;8.05;;;2.10;;
73980;SDS011;62348;51.412;5.436;2022-11-22T07:52:30;9.55;;;2.20;;
73980;SDS011;62348;51.412;5.436;2022-11-22T07:54:55;8.73;;;2.97;;
73980;SDS011;62348;51.412;5.436;2022-11-22T07:57:20;10.38;;;2.05;;
73980;SDS011;62348;51.412;5.436;2022-11-22T07:59:46;9.13;;;2.17;;
73980;SDS011;62348;51.412;5.436;2022-11-22T08:02:11;10.27;;;2.55;;
73980;SDS011;62348;51.412;5.436;2022-11-22T08:04:37;7.47;;;2.40;;
73980;SDS011;62348;51.412;5.436;2022-11-22T08:07:02;6.70;;;1.90;;
73980;SDS011;62348;51.412;5.436;2022-11-22T08:09:28;17.35;;;2.42;;
73980;SDS011;62348;51.412;5.436;2022-11-22T08:11:53;7.50;;;2.40;;
73980;SDS011;62348;51.412;5.436;2022-11-22T08:14:19;8.63;;;2.17;;
73980;SDS011;62348;51.412;5.436;2022-11-22T08:16:44;10.95;;;2.85;;
73980;SDS011;62348;51.412;5.436;2022-11-22T08:19:10;12.35;;;2.33;;
73980;SDS011;62348;51.412;5.436;2022-11-22T08:21:40;7.90;;;2.20;;
73980;SDS011;62348;51.412;5.436;2022-11-22T08:24:05;7.32;;;2.17;;
73980;SDS011;62348;51.412;5.436;2022-11-22T08:26:31;12.50;;;1.92;;
73980;SDS011;62348;51.412;5.436;2022-11-22T08:28:58;12.20;;;2.50;;
73980;SDS011;62348;51.412;5.436;2022-11-22T08:31:24;8.80;;;3.00;;
73980;SDS011;62348;51.412;5.436;2022-11-22T08:33:51;8.88;;;2.55;;
73980;SDS011;62348;51.412;5.436;2022-11-22T08:36:17;9.35;;;1.95;;
73980;SDS011;62348;51.412;5.436;2022-11-22T08:38:43;11.40;;;2.00;;
73980;SDS011;62348;51.412;5.436;2022-11-22T08:41:09;10.32;;;2.00;;
73980;SDS011;62348;51.412;5.436;2022-11-22T08:43:35;12.57;;;2.92;;
73980;SDS011;62348;51.412;5.436;2022-11-22T08:46:00;8.45;;;2.35;;
73980;SDS011;62348;51.412;5.436;2022-11-22T08:48:26;12.18;;;2.10;;
73980;SDS011;62348;51.412;5.436;2022-11-22T08:50:54;7.80;;;2.20;;
73980;SDS011;62348;51.412;5.436;2022-11-22T08:53:20;6.47;;;2.30;;
73980;SDS011;62348;51.412;5.436;2022-11-22T08:55:46;10.13;;;2.03;;
73980;SDS011;62348;51.412;5.436;2022-11-22T08:58:12;6.50;;;2.10;;
73980;SDS011;62348;51.412;5.436;2022-11-22T09:00:37;10.45;;;3.05;;
73980;SDS011;62348;51.412;5.436;2022-11-22T09:03:02;4.90;;;1.98;;
73980;SDS011;62348;51.412;5.436;2022-11-22T09:05:29;10.15;;;2.47;;
73980;SDS011;62348;51.412;5.436;2022-11-22T09:07:55;10.38;;;3.92;;
73980;SDS011;62348;51.412;5.436;2022-11-22T09:10:20;9.63;;;2.65;;
73980;SDS011;62348;51.412;5.436;2022-11-22T09:12:46;6.15;;;2.08;;
73980;SDS011;62348;51.412;5.436;2022-11-22T09:15:12;11.45;;;2.13;;
73980;SDS011;62348;51.412;5.436;2022-11-22T09:17:38;7.75;;;4.13;;
73980;SDS011;62348;51.412;5.436;2022-11-22T09:20:04;7.65;;;2.17;;
73980;SDS011;62348;51.412;5.436;2022-11-22T09:22:30;9.70;;;2.95;;
73980;SDS011;62348;51.412;5.436;2022-11-22T09:24:56;11.27;;;2.40;;
73980;SDS011;62348;51.412;5.436;2022-11-22T09:27:22;5.80;;;2.33;;
73980;SDS011;62348;51.412;5.436;2022-11-22T09:29:47;8.63;;;2.45;;
73980;SDS011;62348;51.412;5.436;2022-11-22T09:32:13;5.55;;;2.05;;
73980;SDS011;62348;51.412;5.436;2022-11-22T09:34:38;6.72;;;1.80;;
73980;SDS011;62348;51.412;5.436;2022-11-22T09:37:04;5.75;;;1.63;;
73980;SDS011;62348;51.412;5.436;2022-11-22T09:39:29;5.88;;;1.67;;
73980;SDS011;62348;51.412;5.436;2022-11-22T09:50:50;4.93;;;1.50;;
73980;SDS011;62348;51.412;5.436;2022-11-22T09:53:31;10.95;;;2.30;;
73980;SDS011;62348;51.412;5.436;2022-11-22T09:56:04;6.03;;;1.73;;
73980;SDS011;62348;51.412;5.436;2022-11-22T09:58:39;5.83;;;1.60;;
73980;SDS011;62348;51.412;5.436;2022-11-22T10:03:47;10.48;;;2.20;;
73980;SDS011;62348;51.412;5.436;2022-11-22T10:06:20;7.10;;;1.80;;
73980;SDS011;62348;51.412;5.436;2022-11-22T10:12:14;8.15;;;2.08;;
73980;SDS011;62348;51.412;5.436;2022-11-22T10:14:51;5.10;;;1.83;;
73980;SDS011;62348;51.412;5.436;2022-11-22T10:17:47;4.68;;;2.20;;
73980;SDS011;62348;51.412;5.436;2022-11-22T10:20:19;3.42;;;1.65;;
73980;SDS011;62348;51.412;5.436;2022-11-22T10:22:50;9.55;;;3.50;;
73980;SDS011;62348;51.412;5.436;2022-11-22T10:27:52;9.45;;;2.08;;
73980;SDS011;62348;51.412;5.436;2022-11-22T10:30:24;6.97;;;2.35;;
73980;SDS011;62348;51.412;5.436;2022-11-22T10:41:27;7.47;;;3.35;;
73980;SDS011;62348;51.412;5.436;2022-11-22T10:49:33;5.55;;;2.08;;
73980;SDS011;62348;51.412;5.436;2022-11-22T10:52:14;6.13;;;1.50;;
73980;SDS011;62348;51.412;5.436;2022-11-22T10:54:55;5.53;;;1.33;;
73980;SDS011;62348;51.412;5.436;2022-11-22T10:57:28;4.07;;;1.13;;
73980;SDS011;62348;51.412;5.436;2022-11-22T11:00:20;3.80;;;1.40;;
73980;SDS011;62348;51.412;5.436;2022-11-22T11:05:22;2.45;;;1.92;;
73980;SDS011;62348;51.412;5.436;2022-11-22T11:07:54;2.33;;;1.02;;
73980;SDS011;62348;51.412;5.436;2022-11-22T11:10:21;3.92;;;1.67;;
73980;SDS011;62348;51.412;5.436;2022-11-22T11:12:57;1.25;;;1.13;;
73980;SDS011;62348;51.412;5.436;2022-11-22T11:18:23;3.75;;;1.17;;
73980;SDS011;62348;51.412;5.436;2022-11-22T11:20:55;2.33;;;1.33;;
73980;SDS011;62348;51.412;5.436;2022-11-22T11:23:20;1.95;;;1.00;;
73980;SDS011;62348;51.412;5.436;2022-11-22T11:25:46;3.65;;;1.20;;
73980;SDS011;62348;51.412;5.436;2022-11-22T11:28:23;3.22;;;0.93;;
73980;SDS011;62348;51.412;5.436;2022-11-22T11:33:34;2.88;;;0.73;;
73980;SDS011;62348;51.412;5.436;2022-11-22T11:36:05;1.92;;;0.80;;
73980;SDS011;62348;51.412;5.436;2022-11-22T11:41:15;2.67;;;0.93;;
73980;SDS011;62348;51.412;5.436;2022-11-22T11:43:55;1.13;;;1.02;;
73980;SDS011;62348;51.412;5.436;2022-11-22T11:46:26;0.85;;;0.70;;
73980;SDS011;62348;51.412;5.436;2022-11-22T11:48:53;2.05;;;0.75;;
73980;SDS011;62348;51.412;5.436;2022-11-22T11:54:25;2.88;;;0.90;;
73980;SDS011;62348;51.412;5.436;2022-11-22T11:57:12;3.22;;;0.70;;
73980;SDS011;62348;51.412;5.436;2022-11-22T12:05:04;1.17;;;0.70;;
73980;SDS011;62348;51.412;5.436;2022-11-22T12:16:12;1.48;;;0.55;;
73980;SDS011;62348;51.412;5.436;2022-11-22T12:24:36;0.68;;;0.65;;
73980;SDS011;62348;51.412;5.436;2022-11-22T12:27:09;3.40;;;0.73;;
73980;SDS011;62348;51.412;5.436;2022-11-22T12:29:36;3.53;;;0.60;;
73980;SDS011;62348;51.412;5.436;2022-11-22T12:32:11;0.88;;;0.82;;
73980;SDS011;62348;51.412;5.436;2022-11-22T12:34:49;1.90;;;0.95;;
73980;SDS011;62348;51.412;5.436;2022-11-22T12:39:55;1.50;;;0.60;;
73980;SDS011;62348;51.412;5.436;2022-11-22T12:42:30;0.88;;;0.88;;
73980;SDS011;62348;51.412;5.436;2022-11-22T12:45:03;1.02;;;0.52;;
73980;SDS011;62348;51.412;5.436;2022-11-22T12:47:40;0.75;;;0.60;;
73980;SDS011;62348;51.412;5.436;2022-11-22T12:50:19;0.98;;;0.52;;
73980;SDS011;62348;51.412;5.436;2022-11-22T12:52:54;2.83;;;0.65;;
73980;SDS011;62348;51.412;5.436;2022-11-22T12:55:44;1.33;;;0.73;;
73980;SDS011;62348;51.412;5.436;2022-11-22T13:06:43;1.00;;;0.90;;
73980;SDS011;62348;51.412;5.436;2022-11-22T13:09:20;1.48;;;1.00;;
73980;SDS011;62348;51.412;5.436;2022-11-22T13:12:01;2.72;;;1.65;;
73980;SDS011;62348;51.412;5.436;2022-11-22T13:17:32;1.60;;;0.75;;
73980;SDS011;62348;51.412;5.436;2022-11-22T13:20:14;0.70;;;0.60;;
73980;SDS011;62348;51.412;5.436;2022-11-22T13:25:56;1.55;;;0.98;;
73980;SDS011;62348;51.412;5.436;2022-11-22T13:28:31;1.60;;;0.60;;
73980;SDS011;62348;51.412;5.436;2022-11-22T13:31:12;1.63;;;0.73;;
73980;SDS011;62348;51.412;5.436;2022-11-22T13:34:01;1.08;;;0.82;;
73980;SDS011;62348;51.412;5.436;2022-11-22T13:38:52;0.85;;;0.63;;
73980;SDS011;62348;51.412;5.436;2022-11-22T13:41:26;0.68;;;0.65;;
73980;SDS011;62348;51.412;5.436;2022-11-22T13:44:47;1.27;;;0.60;;
73980;SDS011;62348;51.412;5.436;2022-11-22T13:49:43;0.63;;;0.57;;
73980;SDS011;62348;51.412;5.436;2022-11-22T14:02:34;0.85;;;0.45;;
73980;SDS011;62348;51.412;5.436;2022-11-22T14:04:59;0.80;;;0.50;;
73980;SDS011;62348;51.412;5.436;2022-11-22T14:07:30;0.45;;;0.40;;
73980;SDS011;62348;51.412;5.436;2022-11-22T14:09:58;1.00;;;0.80;;
73980;SDS011;62348;51.412;5.436;2022-11-22T14:15:23;3.08;;;0.60;;
73980;SDS011;62348;51.412;5.436;2022-11-22T14:20:57;0.70;;;0.55;;
73980;SDS011;62348;51.412;5.436;2022-11-22T14:23:55;0.60;;;0.50;;
73980;SDS011;62348;51.412;5.436;2022-11-22T14:29:09;1.73;;;0.60;;
73980;SDS011;62348;51.412;5.436;2022-11-22T14:32:18;0.95;;;0.50;;
73980;SDS011;62348;51.412;5.436;2022-11-22T14:50:21;0.50;;;0.50;;
73980;SDS011;62348;51.412;5.436;2022-11-22T14:52:51;1.00;;;0.38;;
73980;SDS011;62348;51.412;5.436;2022-11-22T14:55:21;0.40;;;0.40;;
73980;SDS011;62348;51.412;5.436;2022-11-22T14:57:59;1.20;;;1.05;;
73980;SDS011;62348;51.412;5.436;2022-11-22T15:00:40;3.75;;;0.80;;
73980;SDS011;62348;51.412;5.436;2022-11-22T15:17:35;1.20;;;0.77;;
73980;SDS011;62348;51.412;5.436;2022-11-22T15:23:24;1.38;;;1.05;;
73980;SDS011;62348;51.412;5.436;2022-11-22T15:26:00;2.95;;;1.25;;
73980;SDS011;62348;51.412;5.436;2022-11-22T15:28:27;3.42;;;1.38;;
73980;SDS011;62348;51.412;5.436;2022-11-22T15:30:55;1.98;;;1.58;;
73980;SDS011;62348;51.412;5.436;2022-11-22T15:38:51;1.60;;;1.45;;
73980;SDS011;62348;51.412;5.436;2022-11-22T15:43:44;1.90;;;1.75;;
73980;SDS011;62348;51.412;5.436;2022-11-22T15:46:12;2.53;;;1.60;;
73980;SDS011;62348;51.412;5.436;2022-11-22T15:48:44;2.97;;;1.85;;
73980;SDS011;62348;51.412;5.436;2022-11-22T15:53:37;3.25;;;2.35;;
73980;SDS011;62348;51.412;5.436;2022-11-22T15:56:22;1.77;;;1.67;;
73980;SDS011;62348;51.412;5.436;2022-11-22T15:58:56;2.13;;;1.90;;
73980;SDS011;62348;51.412;5.436;2022-11-22T16:01:22;3.33;;;2.15;;
73980;SDS011;62348;51.412;5.436;2022-11-22T16:03:49;2.58;;;1.77;;
73980;SDS011;62348;51.412;5.436;2022-11-22T16:06:29;1.80;;;1.70;;
73980;SDS011;62348;51.412;5.436;2022-11-22T16:08:59;2.53;;;2.10;;
73980;SDS011;62348;51.412;5.436;2022-11-22T16:11:34;2.30;;;2.10;;
73980;SDS011;62348;51.412;5.436;2022-11-22T16:14:02;4.47;;;2.33;;
73980;SDS011;62348;51.412;5.436;2022-11-22T16:16:29;2.90;;;2.13;;
73980;SDS011;62348;51.412;5.436;2022-11-22T16:21:57;2.65;;;2.22;;
73980;SDS011;62348;51.412;5.436;2022-11-22T16:24:27;4.80;;;2.90;;
73980;SDS011;62348;51.412;5.436;2022-11-22T16:27:16;4.00;;;2.90;;
73980;SDS011;62348;51.412;5.436;2022-11-22T16:29:40;3.35;;;2.50;;
73980;SDS011;62348;51.412;5.436;2022-11-22T16:32:15;2.10;;;1.90;;
73980;SDS011;62348;51.412;5.436;2022-11-22T16:34:40;3.80;;;2.10;;
73980;SDS011;62348;51.412;5.436;2022-11-22T16:37:26;3.78;;;1.77;;
73980;SDS011;62348;51.412;5.436;2022-11-22T16:39:53;13.05;;;2.17;;
73980;SDS011;62348;51.412;5.436;2022-11-22T16:42:19;2.22;;;1.90;;
73980;SDS011;62348;51.412;5.436;2022-11-22T16:44:44;2.00;;;1.80;;
73980;SDS011;62348;51.412;5.436;2022-11-22T16:47:14;4.45;;;2.10;;
73980;SDS011;62348;51.412;5.436;2022-11-22T16:49:42;4.03;;;1.80;;
73980;SDS011;62348;51.412;5.436;2022-11-22T16:52:12;5.35;;;2.05;;
73980;SDS011;62348;51.412;5.436;2022-11-22T16:54:38;3.95;;;2.55;;
73980;SDS011;62348;51.412;5.436;2022-11-22T16:57:11;3.17;;;1.88;;
73980;SDS011;62348;51.412;5.436;2022-11-22T16:59:38;3.70;;;1.67;;
73980;SDS011;62348;51.412;5.436;2022-11-22T17:02:14;4.28;;;2.33;;
73980;SDS011;62348;51.412;5.436;2022-11-22T17:04:42;4.60;;;1.92;;
73980;SDS011;62348;51.412;5.436;2022-11-22T17:07:09;3.53;;;1.80;;
73980;SDS011;62348;51.412;5.436;2022-11-22T17:09:35;4.07;;;2.28;;
73980;SDS011;62348;51.412;5.436;2022-11-22T17:12:01;5.45;;;2.13;;
73980;SDS011;62348;51.412;5.436;2022-11-22T17:14:26;6.28;;;2.08;;
73980;SDS011;62348;51.412;5.436;2022-11-22T17:16:52;4.93;;;1.90;;
73980;SDS011;62348;51.412;5.436;2022-11-22T17:19:17;3.72;;;2.28;;
73980;SDS011;62348;51.412;5.436;2022-11-22T17:21:43;6.43;;;3.33;;
73980;SDS011;62348;51.412;5.436;2022-11-22T17:24:18;4.15;;;2.15;;
73980;SDS011;62348;51.412;5.436;2022-11-22T17:26:45;4.45;;;1.90;;
73980;SDS011;62348;51.412;5.436;2022-11-22T17:29:11;2.00;;;1.52;;
73980;SDS011;62348;51.412;5.436;2022-11-22T17:31:36;4.15;;;1.80;;